sensor_id;sensor_type;location;lat;lon;timestamp;P1;durP1;ratioP1;P2;durP2;ratioP2
41446;SDS011;27185;52.040;4.490;2022-12-29T00:01:46;3.05;;;1.52;;
41446;SDS011;27185;52.040;4.490;2022-12-29T00:04:32;2.78;;;1.17;;
41446;SDS011;27185;52.040;4.490;2022-12-29T00:07:18;2.22;;;1.17;;
41446;SDS011;27185;52.040;4.490;2022-12-29T00:10:03;2.47;;;1.00;;
41446;SDS011;27185;52.040;4.490;2022-12-29T00:12:49;4.18;;;1.20;;
41446;SDS011;27185;52.040;4.490;2022-12-29T00:15:53;3.20;;;1.25;;
41446;SDS011;27185;52.040;4.490;2022-12-29T00:18:39;3.35;;;1.00;;
41446;SDS011;27185;52.040;4.490;2022-12-29T00:21:25;3.65;;;1.10;;
41446;SDS011;27185;52.040;4.490;2022-12-29T00:24:30;7.07;;;1.35;;
41446;SDS011;27185;52.040;4.490;2022-12-29T00:27:21;2.63;;;0.82;;
41446;SDS011;27185;52.040;4.490;2022-12-29T00:30:25;3.38;;;1.08;;
41446;SDS011;27185;52.040;4.490;2022-12-29T00:33:30;2.22;;;1.15;;
41446;SDS011;27185;52.040;4.490;2022-12-29T00:36:36;7.35;;;0.65;;
41446;SDS011;27185;52.040;4.490;2022-12-29T00:39:25;5.70;;;0.93;;
41446;SDS011;27185;52.040;4.490;2022-12-29T00:42:29;2.42;;;0.80;;
41446;SDS011;27185;52.040;4.490;2022-12-29T00:45:33;2.35;;;1.02;;
41446;SDS011;27185;52.040;4.490;2022-12-29T00:48:19;3.88;;;1.00;;
41446;SDS011;27185;52.040;4.490;2022-12-29T00:51:24;1.83;;;0.80;;
41446;SDS011;27185;52.040;4.490;2022-12-29T00:54:10;2.90;;;0.90;;
41446;SDS011;27185;52.040;4.490;2022-12-29T00:56:56;2.83;;;1.00;;
41446;SDS011;27185;52.040;4.490;2022-12-29T00:59:42;2.45;;;0.90;;
41446;SDS011;27185;52.040;4.490;2022-12-29T01:02:27;3.10;;;1.02;;
41446;SDS011;27185;52.040;4.490;2022-12-29T01:05:13;4.53;;;1.20;;
41446;SDS011;27185;52.040;4.490;2022-12-29T01:07:59;2.58;;;0.88;;
41446;SDS011;27185;52.040;4.490;2022-12-29T01:10:44;4.63;;;0.80;;
41446;SDS011;27185;52.040;4.490;2022-12-29T01:13:30;1.42;;;0.57;;
41446;SDS011;27185;52.040;4.490;2022-12-29T01:16:15;3.60;;;0.70;;
41446;SDS011;27185;52.040;4.490;2022-12-29T01:19:02;1.50;;;0.57;;
41446;SDS011;27185;52.040;4.490;2022-12-29T01:21:48;2.00;;;0.55;;
41446;SDS011;27185;52.040;4.490;2022-12-29T01:24:34;2.47;;;0.60;;
41446;SDS011;27185;52.040;4.490;2022-12-29T01:27:19;2.08;;;0.60;;
41446;SDS011;27185;52.040;4.490;2022-12-29T01:30:05;5.00;;;0.70;;
41446;SDS011;27185;52.040;4.490;2022-12-29T01:32:51;3.63;;;0.80;;
41446;SDS011;27185;52.040;4.490;2022-12-29T01:35:36;2.25;;;0.90;;
41446;SDS011;27185;52.040;4.490;2022-12-29T01:38:22;2.25;;;0.90;;
41446;SDS011;27185;52.040;4.490;2022-12-29T01:41:08;3.30;;;0.70;;
41446;SDS011;27185;52.040;4.490;2022-12-29T01:43:57;1.17;;;0.60;;
41446;SDS011;27185;52.040;4.490;2022-12-29T01:46:45;3.03;;;0.90;;
41446;SDS011;27185;52.040;4.490;2022-12-29T01:49:34;5.40;;;0.60;;
41446;SDS011;27185;52.040;4.490;2022-12-29T01:52:20;2.72;;;0.70;;
41446;SDS011;27185;52.040;4.490;2022-12-29T01:55:07;3.80;;;0.93;;
41446;SDS011;27185;52.040;4.490;2022-12-29T02:00:43;3.33;;;0.50;;
41446;SDS011;27185;52.040;4.490;2022-12-29T02:03:28;6.63;;;0.80;;
41446;SDS011;27185;52.040;4.490;2022-12-29T02:06:19;5.57;;;1.02;;
41446;SDS011;27185;52.040;4.490;2022-12-29T02:09:08;4.88;;;0.88;;
41446;SDS011;27185;52.040;4.490;2022-12-29T02:11:53;6.68;;;0.70;;
41446;SDS011;27185;52.040;4.490;2022-12-29T02:14:39;6.28;;;1.00;;
41446;SDS011;27185;52.040;4.490;2022-12-29T02:32:55;8.63;;;0.73;;
41446;SDS011;27185;52.040;4.490;2022-12-29T02:35:55;7.03;;;0.85;;
41446;SDS011;27185;52.040;4.490;2022-12-29T02:39:49;9.75;;;1.88;;
41446;SDS011;27185;52.040;4.490;2022-12-29T02:43:18;7.32;;;0.90;;
41446;SDS011;27185;52.040;4.490;2022-12-29T02:45:56;5.40;;;0.77;;
41446;SDS011;27185;52.040;4.490;2022-12-29T02:48:59;11.82;;;1.02;;
41446;SDS011;27185;52.040;4.490;2022-12-29T02:55:20;8.52;;;1.25;;
41446;SDS011;27185;52.040;4.490;2022-12-29T02:58:16;10.07;;;1.30;;
41446;SDS011;27185;52.040;4.490;2022-12-29T03:16:48;12.27;;;1.10;;
41446;SDS011;27185;52.040;4.490;2022-12-29T03:19:39;9.85;;;0.93;;
41446;SDS011;27185;52.040;4.490;2022-12-29T03:22:32;5.93;;;0.80;;
41446;SDS011;27185;52.040;4.490;2022-12-29T03:25:24;14.48;;;1.45;;
41446;SDS011;27185;52.040;4.490;2022-12-29T03:28:17;8.65;;;1.20;;
41446;SDS011;27185;52.040;4.490;2022-12-29T03:31:10;6.53;;;1.23;;
41446;SDS011;27185;52.040;4.490;2022-12-29T03:33:57;6.97;;;1.10;;
41446;SDS011;27185;52.040;4.490;2022-12-29T03:36:47;12.95;;;1.48;;
41446;SDS011;27185;52.040;4.490;2022-12-29T03:39:44;8.70;;;1.27;;
41446;SDS011;27185;52.040;4.490;2022-12-29T03:42:30;7.65;;;0.70;;
41446;SDS011;27185;52.040;4.490;2022-12-29T03:45:19;6.03;;;0.90;;
41446;SDS011;27185;52.040;4.490;2022-12-29T03:48:05;6.00;;;0.90;;
41446;SDS011;27185;52.040;4.490;2022-12-29T03:50:50;8.98;;;0.70;;
41446;SDS011;27185;52.040;4.490;2022-12-29T03:53:36;9.25;;;1.10;;
41446;SDS011;27185;52.040;4.490;2022-12-29T03:56:22;12.13;;;1.38;;
41446;SDS011;27185;52.040;4.490;2022-12-29T03:59:07;8.95;;;1.02;;
41446;SDS011;27185;52.040;4.490;2022-12-29T04:01:53;15.10;;;1.50;;
41446;SDS011;27185;52.040;4.490;2022-12-29T04:04:39;10.02;;;1.00;;
41446;SDS011;27185;52.040;4.490;2022-12-29T04:07:25;10.57;;;1.27;;
41446;SDS011;27185;52.040;4.490;2022-12-29T04:10:10;15.65;;;1.42;;
41446;SDS011;27185;52.040;4.490;2022-12-29T04:12:56;14.10;;;1.77;;
41446;SDS011;27185;52.040;4.490;2022-12-29T04:15:45;16.08;;;1.70;;
41446;SDS011;27185;52.040;4.490;2022-12-29T04:18:30;17.73;;;2.28;;
41446;SDS011;27185;52.040;4.490;2022-12-29T04:21:16;15.57;;;1.67;;
41446;SDS011;27185;52.040;4.490;2022-12-29T04:24:01;13.38;;;2.40;;
41446;SDS011;27185;52.040;4.490;2022-12-29T04:26:47;13.35;;;1.42;;
41446;SDS011;27185;52.040;4.490;2022-12-29T04:29:33;11.65;;;1.65;;
41446;SDS011;27185;52.040;4.490;2022-12-29T04:32:19;12.00;;;1.48;;
41446;SDS011;27185;52.040;4.490;2022-12-29T04:35:04;11.10;;;1.40;;
41446;SDS011;27185;52.040;4.490;2022-12-29T04:37:50;10.77;;;1.13;;
41446;SDS011;27185;52.040;4.490;2022-12-29T04:40:37;13.90;;;1.85;;
41446;SDS011;27185;52.040;4.490;2022-12-29T04:43:24;11.10;;;1.45;;
41446;SDS011;27185;52.040;4.490;2022-12-29T04:46:09;9.57;;;1.83;;
41446;SDS011;27185;52.040;4.490;2022-12-29T04:48:55;9.65;;;1.45;;
41446;SDS011;27185;52.040;4.490;2022-12-29T04:51:41;12.13;;;1.80;;
41446;SDS011;27185;52.040;4.490;2022-12-29T04:54:26;12.43;;;1.63;;
41446;SDS011;27185;52.040;4.490;2022-12-29T04:57:12;16.73;;;1.60;;
41446;SDS011;27185;52.040;4.490;2022-12-29T04:59:57;16.45;;;2.00;;
41446;SDS011;27185;52.040;4.490;2022-12-29T05:02:43;10.75;;;1.27;;
41446;SDS011;27185;52.040;4.490;2022-12-29T05:05:29;15.23;;;1.85;;
41446;SDS011;27185;52.040;4.490;2022-12-29T05:08:15;12.20;;;1.55;;
41446;SDS011;27185;52.040;4.490;2022-12-29T05:11:00;12.07;;;1.42;;
41446;SDS011;27185;52.040;4.490;2022-12-29T05:13:46;22.05;;;1.95;;
41446;SDS011;27185;52.040;4.490;2022-12-29T05:16:31;18.90;;;2.38;;
41446;SDS011;27185;52.040;4.490;2022-12-29T05:19:17;12.07;;;1.50;;
41446;SDS011;27185;52.040;4.490;2022-12-29T05:22:03;15.55;;;1.98;;
41446;SDS011;27185;52.040;4.490;2022-12-29T05:24:49;22.08;;;2.30;;
41446;SDS011;27185;52.040;4.490;2022-12-29T05:27:34;13.95;;;2.60;;
41446;SDS011;27185;52.040;4.490;2022-12-29T05:30:20;16.83;;;2.35;;
41446;SDS011;27185;52.040;4.490;2022-12-29T05:33:05;15.20;;;1.70;;
41446;SDS011;27185;52.040;4.490;2022-12-29T05:35:51;17.17;;;1.95;;
41446;SDS011;27185;52.040;4.490;2022-12-29T05:38:37;14.00;;;2.03;;
41446;SDS011;27185;52.040;4.490;2022-12-29T05:41:22;19.45;;;2.03;;
41446;SDS011;27185;52.040;4.490;2022-12-29T05:44:09;16.30;;;2.10;;
41446;SDS011;27185;52.040;4.490;2022-12-29T05:46:56;17.02;;;2.53;;
41446;SDS011;27185;52.040;4.490;2022-12-29T05:49:41;22.98;;;2.95;;
41446;SDS011;27185;52.040;4.490;2022-12-29T05:52:27;21.98;;;2.28;;
41446;SDS011;27185;52.040;4.490;2022-12-29T05:55:12;17.35;;;1.73;;
41446;SDS011;27185;52.040;4.490;2022-12-29T05:57:58;26.10;;;3.20;;
41446;SDS011;27185;52.040;4.490;2022-12-29T06:00:43;15.55;;;2.25;;
41446;SDS011;27185;52.040;4.490;2022-12-29T06:03:29;20.05;;;2.33;;
41446;SDS011;27185;52.040;4.490;2022-12-29T06:06:15;20.45;;;2.80;;
41446;SDS011;27185;52.040;4.490;2022-12-29T06:09:00;17.48;;;3.03;;
41446;SDS011;27185;52.040;4.490;2022-12-29T06:11:46;23.77;;;2.88;;
41446;SDS011;27185;52.040;4.490;2022-12-29T06:14:32;19.23;;;2.53;;
41446;SDS011;27185;52.040;4.490;2022-12-29T06:17:17;17.65;;;2.92;;
41446;SDS011;27185;52.040;4.490;2022-12-29T06:20:03;21.15;;;3.10;;
41446;SDS011;27185;52.040;4.490;2022-12-29T06:22:49;20.15;;;2.75;;
41446;SDS011;27185;52.040;4.490;2022-12-29T06:25:34;13.65;;;2.33;;
41446;SDS011;27185;52.040;4.490;2022-12-29T06:28:20;20.08;;;2.25;;
41446;SDS011;27185;52.040;4.490;2022-12-29T06:31:08;22.15;;;3.17;;
41446;SDS011;27185;52.040;4.490;2022-12-29T06:33:55;19.77;;;3.55;;
41446;SDS011;27185;52.040;4.490;2022-12-29T06:36:40;21.75;;;3.72;;
41446;SDS011;27185;52.040;4.490;2022-12-29T06:39:26;18.75;;;2.47;;
41446;SDS011;27185;52.040;4.490;2022-12-29T06:42:12;25.27;;;3.13;;
41446;SDS011;27185;52.040;4.490;2022-12-29T06:44:57;21.10;;;3.08;;
41446;SDS011;27185;52.040;4.490;2022-12-29T06:47:45;25.70;;;3.60;;
41446;SDS011;27185;52.040;4.490;2022-12-29T06:50:31;23.23;;;3.33;;
41446;SDS011;27185;52.040;4.490;2022-12-29T06:53:16;23.52;;;3.53;;
41446;SDS011;27185;52.040;4.490;2022-12-29T06:56:02;16.02;;;2.40;;
41446;SDS011;27185;52.040;4.490;2022-12-29T06:58:48;24.77;;;3.75;;
41446;SDS011;27185;52.040;4.490;2022-12-29T07:01:33;16.80;;;2.03;;
41446;SDS011;27185;52.040;4.490;2022-12-29T07:04:20;12.80;;;1.98;;
41446;SDS011;27185;52.040;4.490;2022-12-29T07:07:06;11.52;;;1.95;;
41446;SDS011;27185;52.040;4.490;2022-12-29T07:09:51;16.13;;;1.30;;
41446;SDS011;27185;52.040;4.490;2022-12-29T07:12:37;16.27;;;1.50;;
41446;SDS011;27185;52.040;4.490;2022-12-29T07:15:22;14.95;;;1.65;;
41446;SDS011;27185;52.040;4.490;2022-12-29T07:18:08;21.63;;;2.63;;
41446;SDS011;27185;52.040;4.490;2022-12-29T07:20:54;15.35;;;2.15;;
41446;SDS011;27185;52.040;4.490;2022-12-29T07:23:39;15.63;;;2.40;;
41446;SDS011;27185;52.040;4.490;2022-12-29T07:26:25;12.40;;;1.70;;
41446;SDS011;27185;52.040;4.490;2022-12-29T07:29:10;24.08;;;2.47;;
41446;SDS011;27185;52.040;4.490;2022-12-29T07:31:56;15.55;;;2.20;;
41446;SDS011;27185;52.040;4.490;2022-12-29T07:34:42;26.02;;;3.35;;
41446;SDS011;27185;52.040;4.490;2022-12-29T07:37:30;16.38;;;3.03;;
41446;SDS011;27185;52.040;4.490;2022-12-29T07:40:15;14.30;;;2.35;;
41446;SDS011;27185;52.040;4.490;2022-12-29T07:43:01;13.57;;;2.08;;
41446;SDS011;27185;52.040;4.490;2022-12-29T07:45:47;24.08;;;2.67;;
41446;SDS011;27185;52.040;4.490;2022-12-29T07:48:33;18.60;;;3.25;;
41446;SDS011;27185;52.040;4.490;2022-12-29T07:51:20;16.90;;;2.45;;
41446;SDS011;27185;52.040;4.490;2022-12-29T07:54:06;20.02;;;3.20;;
41446;SDS011;27185;52.040;4.490;2022-12-29T07:56:52;18.50;;;2.90;;
41446;SDS011;27185;52.040;4.490;2022-12-29T07:59:37;26.63;;;4.20;;
41446;SDS011;27185;52.040;4.490;2022-12-29T08:02:23;16.33;;;2.60;;
41446;SDS011;27185;52.040;4.490;2022-12-29T08:05:08;13.55;;;2.58;;
41446;SDS011;27185;52.040;4.490;2022-12-29T08:07:54;16.73;;;3.40;;
41446;SDS011;27185;52.040;4.490;2022-12-29T08:13:27;21.77;;;3.35;;
41446;SDS011;27185;52.040;4.490;2022-12-29T08:16:13;20.48;;;2.97;;
41446;SDS011;27185;52.040;4.490;2022-12-29T08:18:59;18.75;;;2.55;;
41446;SDS011;27185;52.040;4.490;2022-12-29T08:21:44;20.92;;;2.83;;
41446;SDS011;27185;52.040;4.490;2022-12-29T08:24:30;33.25;;;3.92;;
41446;SDS011;27185;52.040;4.490;2022-12-29T08:27:15;27.40;;;4.18;;
41446;SDS011;27185;52.040;4.490;2022-12-29T08:30:01;25.58;;;2.88;;
41446;SDS011;27185;52.040;4.490;2022-12-29T08:32:47;23.88;;;3.20;;
41446;SDS011;27185;52.040;4.490;2022-12-29T08:35:32;21.08;;;3.80;;
41446;SDS011;27185;52.040;4.490;2022-12-29T08:38:18;22.55;;;2.33;;
41446;SDS011;27185;52.040;4.490;2022-12-29T08:41:03;24.15;;;3.80;;
41446;SDS011;27185;52.040;4.490;2022-12-29T08:43:49;21.85;;;3.33;;
41446;SDS011;27185;52.040;4.490;2022-12-29T08:46:35;26.38;;;3.25;;
41446;SDS011;27185;52.040;4.490;2022-12-29T08:49:20;21.60;;;3.63;;
41446;SDS011;27185;52.040;4.490;2022-12-29T08:52:07;22.55;;;2.80;;
41446;SDS011;27185;52.040;4.490;2022-12-29T08:54:53;21.58;;;3.58;;
41446;SDS011;27185;52.040;4.490;2022-12-29T08:57:38;21.55;;;2.72;;
41446;SDS011;27185;52.040;4.490;2022-12-29T09:00:24;21.90;;;2.78;;
41446;SDS011;27185;52.040;4.490;2022-12-29T09:03:10;21.10;;;3.00;;
41446;SDS011;27185;52.040;4.490;2022-12-29T09:05:56;23.15;;;3.28;;
41446;SDS011;27185;52.040;4.490;2022-12-29T09:08:41;24.27;;;3.25;;
41446;SDS011;27185;52.040;4.490;2022-12-29T09:11:27;19.67;;;3.35;;
41446;SDS011;27185;52.040;4.490;2022-12-29T09:14:13;17.63;;;2.97;;
41446;SDS011;27185;52.040;4.490;2022-12-29T09:16:59;19.25;;;3.13;;
41446;SDS011;27185;52.040;4.490;2022-12-29T09:20:03;14.68;;;2.55;;
41446;SDS011;27185;52.040;4.490;2022-12-29T09:22:49;21.67;;;3.50;;
41446;SDS011;27185;52.040;4.490;2022-12-29T09:25:35;23.70;;;3.88;;
41446;SDS011;27185;52.040;4.490;2022-12-29T09:28:21;18.98;;;2.92;;
41446;SDS011;27185;52.040;4.490;2022-12-29T09:31:07;23.20;;;3.03;;
41446;SDS011;27185;52.040;4.490;2022-12-29T09:33:53;24.13;;;3.05;;
41446;SDS011;27185;52.040;4.490;2022-12-29T09:36:38;19.40;;;3.65;;
41446;SDS011;27185;52.040;4.490;2022-12-29T09:39:24;22.55;;;3.33;;
41446;SDS011;27185;52.040;4.490;2022-12-29T09:47:58;23.33;;;3.22;;
41446;SDS011;27185;52.040;4.490;2022-12-29T09:50:45;17.80;;;2.45;;
41446;SDS011;27185;52.040;4.490;2022-12-29T09:53:44;28.45;;;4.05;;
41446;SDS011;27185;52.040;4.490;2022-12-29T09:56:33;34.95;;;4.55;;
41446;SDS011;27185;52.040;4.490;2022-12-29T09:59:41;26.08;;;3.55;;
41446;SDS011;27185;52.040;4.490;2022-12-29T10:14:05;41.80;;;4.10;;
41446;SDS011;27185;52.040;4.490;2022-12-29T10:20:16;36.45;;;4.90;;
41446;SDS011;27185;52.040;4.490;2022-12-29T10:23:20;36.35;;;4.93;;
41446;SDS011;27185;52.040;4.490;2022-12-29T10:26:15;30.80;;;4.70;;
41446;SDS011;27185;52.040;4.490;2022-12-29T10:29:04;33.08;;;5.20;;
41446;SDS011;27185;52.040;4.490;2022-12-29T10:31:56;33.53;;;7.05;;
41446;SDS011;27185;52.040;4.490;2022-12-29T10:34:45;25.48;;;4.55;;
41446;SDS011;27185;52.040;4.490;2022-12-29T10:37:38;31.75;;;4.65;;
41446;SDS011;27185;52.040;4.490;2022-12-29T10:40:42;28.42;;;4.60;;
41446;SDS011;27185;52.040;4.490;2022-12-29T10:46:41;28.77;;;5.88;;
41446;SDS011;27185;52.040;4.490;2022-12-29T10:49:29;25.98;;;4.63;;
41446;SDS011;27185;52.040;4.490;2022-12-29T10:52:17;25.35;;;3.92;;
41446;SDS011;27185;52.040;4.490;2022-12-29T10:55:12;32.67;;;4.72;;
41446;SDS011;27185;52.040;4.490;2022-12-29T10:58:04;20.98;;;3.63;;
41446;SDS011;27185;52.040;4.490;2022-12-29T11:00:52;22.70;;;3.25;;
41446;SDS011;27185;52.040;4.490;2022-12-29T11:03:50;27.33;;;3.00;;
41446;SDS011;27185;52.040;4.490;2022-12-29T11:06:44;24.55;;;3.45;;
41446;SDS011;27185;52.040;4.490;2022-12-29T11:09:30;24.40;;;3.30;;
41446;SDS011;27185;52.040;4.490;2022-12-29T11:12:23;26.02;;;4.03;;
41446;SDS011;27185;52.040;4.490;2022-12-29T11:15:14;30.95;;;4.95;;
41446;SDS011;27185;52.040;4.490;2022-12-29T11:18:00;28.23;;;4.45;;
41446;SDS011;27185;52.040;4.490;2022-12-29T11:20:46;25.88;;;3.55;;
41446;SDS011;27185;52.040;4.490;2022-12-29T11:23:33;27.30;;;3.20;;
41446;SDS011;27185;52.040;4.490;2022-12-29T11:26:20;17.20;;;2.08;;
41446;SDS011;27185;52.040;4.490;2022-12-29T11:32:04;25.85;;;3.58;;
41446;SDS011;27185;52.040;4.490;2022-12-29T11:35:03;20.77;;;2.75;;
41446;SDS011;27185;52.040;4.490;2022-12-29T11:37:49;25.15;;;3.47;;
41446;SDS011;27185;52.040;4.490;2022-12-29T11:40:42;21.60;;;3.10;;
41446;SDS011;27185;52.040;4.490;2022-12-29T11:43:32;20.45;;;3.42;;
41446;SDS011;27185;52.040;4.490;2022-12-29T11:46:29;22.13;;;2.35;;
41446;SDS011;27185;52.040;4.490;2022-12-29T11:49:23;18.40;;;2.55;;
41446;SDS011;27185;52.040;4.490;2022-12-29T11:52:11;13.18;;;1.80;;
41446;SDS011;27185;52.040;4.490;2022-12-29T11:54:58;10.77;;;1.65;;
41446;SDS011;27185;52.040;4.490;2022-12-29T11:57:46;12.63;;;2.13;;
41446;SDS011;27185;52.040;4.490;2022-12-29T12:00:33;13.65;;;1.98;;
41446;SDS011;27185;52.040;4.490;2022-12-29T12:03:25;11.38;;;1.83;;
41446;SDS011;27185;52.040;4.490;2022-12-29T12:06:16;16.27;;;1.92;;
41446;SDS011;27185;52.040;4.490;2022-12-29T12:09:06;15.43;;;2.00;;
41446;SDS011;27185;52.040;4.490;2022-12-29T12:11:59;19.17;;;2.45;;
41446;SDS011;27185;52.040;4.490;2022-12-29T12:14:47;21.50;;;2.40;;
41446;SDS011;27185;52.040;4.490;2022-12-29T12:20:50;21.00;;;2.67;;
41446;SDS011;27185;52.040;4.490;2022-12-29T12:27:09;19.35;;;2.80;;
41446;SDS011;27185;52.040;4.490;2022-12-29T12:39:47;19.45;;;1.95;;
41446;SDS011;27185;52.040;4.490;2022-12-29T12:46:18;14.82;;;1.75;;
41446;SDS011;27185;52.040;4.490;2022-12-29T12:49:40;15.73;;;2.17;;
41446;SDS011;27185;52.040;4.490;2022-12-29T12:52:43;16.90;;;2.30;;
41446;SDS011;27185;52.040;4.490;2022-12-29T12:55:49;13.07;;;2.20;;
41446;SDS011;27185;52.040;4.490;2022-12-29T13:01:46;21.13;;;3.55;;
41446;SDS011;27185;52.040;4.490;2022-12-29T13:17:30;22.23;;;4.40;;
41446;SDS011;27185;52.040;4.490;2022-12-29T13:20:27;25.33;;;4.15;;
41446;SDS011;27185;52.040;4.490;2022-12-29T13:26:32;15.02;;;2.47;;
41446;SDS011;27185;52.040;4.490;2022-12-29T13:29:32;19.05;;;3.00;;
41446;SDS011;27185;52.040;4.490;2022-12-29T13:32:30;18.02;;;3.00;;
41446;SDS011;27185;52.040;4.490;2022-12-29T13:35:50;15.40;;;2.05;;
41446;SDS011;27185;52.040;4.490;2022-12-29T13:38:46;19.52;;;3.13;;
41446;SDS011;27185;52.040;4.490;2022-12-29T13:41:38;19.60;;;2.75;;
41446;SDS011;27185;52.040;4.490;2022-12-29T13:47:26;11.85;;;1.52;;
41446;SDS011;27185;52.040;4.490;2022-12-29T13:50:18;12.38;;;1.83;;
41446;SDS011;27185;52.040;4.490;2022-12-29T13:56:09;12.88;;;1.50;;
41446;SDS011;27185;52.040;4.490;2022-12-29T13:59:21;10.05;;;1.60;;
41446;SDS011;27185;52.040;4.490;2022-12-29T14:05:30;12.00;;;1.60;;
41446;SDS011;27185;52.040;4.490;2022-12-29T14:08:17;17.88;;;2.58;;
41446;SDS011;27185;52.040;4.490;2022-12-29T14:11:07;15.35;;;2.17;;
41446;SDS011;27185;52.040;4.490;2022-12-29T14:13:59;28.42;;;6.43;;
41446;SDS011;27185;52.040;4.490;2022-12-29T14:17:09;11.35;;;2.40;;
41446;SDS011;27185;52.040;4.490;2022-12-29T14:19:57;15.07;;;1.95;;
41446;SDS011;27185;52.040;4.490;2022-12-29T14:29:15;19.05;;;3.45;;
41446;SDS011;27185;52.040;4.490;2022-12-29T14:38:26;13.57;;;1.98;;
41446;SDS011;27185;52.040;4.490;2022-12-29T14:41:24;18.63;;;2.83;;
41446;SDS011;27185;52.040;4.490;2022-12-29T14:44:22;18.58;;;2.05;;
41446;SDS011;27185;52.040;4.490;2022-12-29T14:47:07;17.42;;;1.92;;
41446;SDS011;27185;52.040;4.490;2022-12-29T14:49:53;15.35;;;2.20;;
41446;SDS011;27185;52.040;4.490;2022-12-29T14:55:40;17.65;;;2.00;;
41446;SDS011;27185;52.040;4.490;2022-12-29T14:58:27;10.35;;;1.77;;
41446;SDS011;27185;52.040;4.490;2022-12-29T15:01:23;14.18;;;2.00;;
41446;SDS011;27185;52.040;4.490;2022-12-29T15:04:52;12.30;;;1.50;;
41446;SDS011;27185;52.040;4.490;2022-12-29T15:07:20;20.77;;;2.08;;
41446;SDS011;27185;52.040;4.490;2022-12-29T15:10:07;16.35;;;1.50;;
41446;SDS011;27185;52.040;4.490;2022-12-29T15:13:02;16.20;;;2.50;;
41446;SDS011;27185;52.040;4.490;2022-12-29T15:15:49;13.52;;;1.75;;
41446;SDS011;27185;52.040;4.490;2022-12-29T15:18:35;14.80;;;2.28;;
41446;SDS011;27185;52.040;4.490;2022-12-29T15:21:25;17.05;;;3.80;;
41446;SDS011;27185;52.040;4.490;2022-12-29T15:24:13;16.42;;;2.42;;
41446;SDS011;27185;52.040;4.490;2022-12-29T15:27:02;16.65;;;2.00;;
41446;SDS011;27185;52.040;4.490;2022-12-29T15:29:59;15.38;;;1.67;;
41446;SDS011;27185;52.040;4.490;2022-12-29T15:32:47;15.35;;;1.75;;
41446;SDS011;27185;52.040;4.490;2022-12-29T15:35:34;13.55;;;2.20;;
41446;SDS011;27185;52.040;4.490;2022-12-29T15:38:22;17.73;;;2.78;;
41446;SDS011;27185;52.040;4.490;2022-12-29T15:44:44;19.95;;;2.40;;
41446;SDS011;27185;52.040;4.490;2022-12-29T15:47:31;19.30;;;3.20;;
41446;SDS011;27185;52.040;4.490;2022-12-29T15:50:31;18.17;;;2.05;;
41446;SDS011;27185;52.040;4.490;2022-12-29T15:53:23;17.48;;;2.25;;
41446;SDS011;27185;52.040;4.490;2022-12-29T15:56:13;19.73;;;2.42;;
41446;SDS011;27185;52.040;4.490;2022-12-29T15:58:59;19.02;;;1.83;;
41446;SDS011;27185;52.040;4.490;2022-12-29T16:01:45;15.32;;;2.05;;
41446;SDS011;27185;52.040;4.490;2022-12-29T16:04:31;14.38;;;2.05;;
41446;SDS011;27185;52.040;4.490;2022-12-29T16:07:35;21.98;;;2.42;;
41446;SDS011;27185;52.040;4.490;2022-12-29T16:10:25;15.95;;;2.85;;
41446;SDS011;27185;52.040;4.490;2022-12-29T16:16:07;15.40;;;1.60;;
41446;SDS011;27185;52.040;4.490;2022-12-29T16:18:58;9.15;;;1.85;;
41446;SDS011;27185;52.040;4.490;2022-12-29T16:21:46;16.00;;;1.90;;
41446;SDS011;27185;52.040;4.490;2022-12-29T16:24:32;18.40;;;1.55;;
41446;SDS011;27185;52.040;4.490;2022-12-29T16:27:22;18.23;;;2.42;;
41446;SDS011;27185;52.040;4.490;2022-12-29T16:30:17;17.73;;;2.60;;
41446;SDS011;27185;52.040;4.490;2022-12-29T16:33:28;17.30;;;1.98;;
41446;SDS011;27185;52.040;4.490;2022-12-29T16:36:27;10.02;;;1.85;;
41446;SDS011;27185;52.040;4.490;2022-12-29T16:45:45;12.82;;;1.50;;
41446;SDS011;27185;52.040;4.490;2022-12-29T16:48:45;15.43;;;2.03;;
41446;SDS011;27185;52.040;4.490;2022-12-29T16:51:35;13.40;;;1.98;;
41446;SDS011;27185;52.040;4.490;2022-12-29T16:54:23;11.90;;;1.77;;
41446;SDS011;27185;52.040;4.490;2022-12-29T16:57:12;16.52;;;2.00;;
41446;SDS011;27185;52.040;4.490;2022-12-29T16:59:59;15.23;;;1.75;;
41446;SDS011;27185;52.040;4.490;2022-12-29T17:02:51;19.10;;;2.78;;
41446;SDS011;27185;52.040;4.490;2022-12-29T17:05:41;12.43;;;2.03;;
41446;SDS011;27185;52.040;4.490;2022-12-29T17:08:26;18.25;;;2.17;;
41446;SDS011;27185;52.040;4.490;2022-12-29T17:11:19;15.25;;;1.80;;
41446;SDS011;27185;52.040;4.490;2022-12-29T17:17:30;16.73;;;2.05;;
41446;SDS011;27185;52.040;4.490;2022-12-29T17:20:25;15.75;;;1.95;;
41446;SDS011;27185;52.040;4.490;2022-12-29T17:23:14;14.88;;;2.10;;
41446;SDS011;27185;52.040;4.490;2022-12-29T17:26:00;14.68;;;1.85;;
41446;SDS011;27185;52.040;4.490;2022-12-29T17:28:46;11.57;;;1.70;;
41446;SDS011;27185;52.040;4.490;2022-12-29T17:31:32;24.65;;;2.90;;
41446;SDS011;27185;52.040;4.490;2022-12-29T17:34:17;10.50;;;1.75;;
41446;SDS011;27185;52.040;4.490;2022-12-29T17:37:07;11.98;;;1.70;;
41446;SDS011;27185;52.040;4.490;2022-12-29T17:40:17;17.52;;;2.40;;
41446;SDS011;27185;52.040;4.490;2022-12-29T17:43:07;14.15;;;1.70;;
41446;SDS011;27185;52.040;4.490;2022-12-29T17:45:59;14.45;;;2.13;;
41446;SDS011;27185;52.040;4.490;2022-12-29T17:48:45;16.85;;;2.28;;
41446;SDS011;27185;52.040;4.490;2022-12-29T17:51:30;15.85;;;2.13;;
41446;SDS011;27185;52.040;4.490;2022-12-29T17:54:25;20.08;;;2.47;;
41446;SDS011;27185;52.040;4.490;2022-12-29T17:57:14;17.30;;;2.83;;
41446;SDS011;27185;52.040;4.490;2022-12-29T18:00:01;19.83;;;2.38;;
41446;SDS011;27185;52.040;4.490;2022-12-29T18:02:47;17.17;;;2.80;;
41446;SDS011;27185;52.040;4.490;2022-12-29T18:05:33;12.95;;;2.45;;
41446;SDS011;27185;52.040;4.490;2022-12-29T18:08:19;23.38;;;3.63;;
41446;SDS011;27185;52.040;4.490;2022-12-29T18:11:11;24.30;;;4.20;;
41446;SDS011;27185;52.040;4.490;2022-12-29T18:14:16;21.50;;;2.50;;
41446;SDS011;27185;52.040;4.490;2022-12-29T18:17:06;15.77;;;2.15;;
41446;SDS011;27185;52.040;4.490;2022-12-29T18:19:56;15.50;;;2.72;;
41446;SDS011;27185;52.040;4.490;2022-12-29T18:22:42;12.45;;;2.10;;
41446;SDS011;27185;52.040;4.490;2022-12-29T18:28:26;13.95;;;3.33;;
41446;SDS011;27185;52.040;4.490;2022-12-29T18:31:16;25.80;;;3.13;;
41446;SDS011;27185;52.040;4.490;2022-12-29T18:34:11;15.95;;;3.13;;
41446;SDS011;27185;52.040;4.490;2022-12-29T18:36:59;16.00;;;3.08;;
41446;SDS011;27185;52.040;4.490;2022-12-29T18:39:46;22.48;;;3.17;;
41446;SDS011;27185;52.040;4.490;2022-12-29T18:42:32;21.83;;;2.85;;
41446;SDS011;27185;52.040;4.490;2022-12-29T18:45:19;21.02;;;2.63;;
41446;SDS011;27185;52.040;4.490;2022-12-29T18:48:06;25.02;;;3.60;;
41446;SDS011;27185;52.040;4.490;2022-12-29T18:50:52;28.35;;;3.13;;
41446;SDS011;27185;52.040;4.490;2022-12-29T18:53:38;21.88;;;5.40;;
41446;SDS011;27185;52.040;4.490;2022-12-29T18:56:23;24.63;;;3.67;;
41446;SDS011;27185;52.040;4.490;2022-12-29T18:59:09;22.17;;;2.67;;
41446;SDS011;27185;52.040;4.490;2022-12-29T19:01:54;16.52;;;2.97;;
41446;SDS011;27185;52.040;4.490;2022-12-29T19:04:40;27.15;;;3.30;;
41446;SDS011;27185;52.040;4.490;2022-12-29T19:07:25;23.10;;;3.00;;
41446;SDS011;27185;52.040;4.490;2022-12-29T19:10:11;24.50;;;3.50;;
41446;SDS011;27185;52.040;4.490;2022-12-29T19:12:57;13.65;;;2.92;;
41446;SDS011;27185;52.040;4.490;2022-12-29T19:15:43;23.00;;;4.47;;
41446;SDS011;27185;52.040;4.490;2022-12-29T19:18:30;23.38;;;3.40;;